St Charlotte — FWBM — position and weather

sailwx.info

Track history (hours):
 
Tides and Currents Weather Stations Pressure Air Temp Water Temp Dewpoint Dewpoint Depression Visibility Wind Speed Wind Dir Waves Ship Positions

St Charlotte

Last reported at 2014-Sep-30 17:33 UTC. Time now 2014-Sep-30 18:08 UTC.
Position N 53°38' W 000°11'.

Length 129 m; draft 6.4 m.

Type: Tanker. MMSI: 228331700.

Date/timePositionNaut miles runAvg speedWind from/ knotsBaromVisibWave heightAir tempDewpointWater temp
2014-Sep-30 17:33N 53°38' W 000°11'0 0.0
2014-Sep-30 16:32N 53°38' W 000°11'0 0.0
2014-Sep-30 15:33N 53°38' W 000°11'0 0.0
2014-Sep-30 14:33N 53°38' W 000°11'0 0.0
2014-Sep-30 13:33N 53°38' W 000°11'0 0.0
2014-Sep-30 12:33N 53°38' W 000°11'0 0.0
2014-Sep-30 11:33N 53°38' W 000°11'0 0.0
2014-Sep-30 10:33N 53°38' W 000°11'0 0.0
2014-Sep-30 09:33N 53°38' W 000°11'0 0.0
2014-Sep-30 08:33N 53°38' W 000°11'0 0.0
2014-Sep-30 07:33N 53°38' W 000°11'0 0.0
2014-Sep-30 06:33N 53°38' W 000°11'0 0.0
2014-Sep-30 05:33N 53°38' W 000°11'0 0.0
2014-Sep-30 04:33N 53°38' W 000°11'0 0.0
2014-Sep-30 03:33N 53°38' W 000°11'0 0.0
2014-Sep-30 02:34N 53°38' W 000°11'0 0.0
2014-Sep-30 01:33N 53°38' W 000°11'0 0.0
2014-Sep-30 00:33N 53°38' W 000°11'0 0.0
2014-Sep-29 23:33N 53°38' W 000°11'0 0.0
2014-Sep-29 22:33N 53°38' W 000°11'0 0.0
2014-Sep-29 21:33N 53°38' W 000°11'0 0.0
2014-Sep-29 20:33N 53°38' W 000°11'2 2.0
2014-Sep-29 19:33N 53°38' W 000°08'1313.4
2014-Sep-29 18:33N 53°33' E 000°14'10 9.6
2014-Sep-29 17:33N 53°32' E 000°30'10 9.7
2014-Sep-29 16:31N 53°31' E 000°47'2613.2
2014-Sep-29 14:33N 53°13' E 001°18'3 2.6
2014-Sep-29 13:33N 53°11' E 001°21'9 8.7
2014-Sep-29 12:33N 53°06' E 001°32'6 6.4
2014-Sep-29 11:33N 53°10' E 001°24'1111.5
2014-Sep-29 10:34N 53°02' E 001°38'1111.0
2014-Sep-29 09:33N 52°57' E 001°55'1111.1
2014-Sep-29 08:33N 52°50' E 002°09'1313.2
2014-Sep-29 07:32N 52°37' E 002°16'1414.5
2014-Sep-29 06:33N 52°23' E 002°20'3912.9
2014-Sep-29 03:34N 51°46' E 002°34'1414.4
2014-Sep-29 02:34N 51°34' E 002°19'1413.7
2014-Sep-29 01:33N 51°22' E 002°10'1313.0
2014-Sep-29 00:33N 51°12' E 001°57'1212.4
2014-Sep-28 23:33N 51°04' E 001°42'1111.1
2014-Sep-28 22:33N 50°56' E 001°30'1110.4
2014-Sep-28 21:32N 50°46' E 001°24'2110.8
2014-Sep-28 19:33N 50°30' E 001°01'1111.1
2014-Sep-28 18:33N 50°26' E 000°44'1311.9
2014-Sep-28 17:30N 50°23' E 000°25'1212.4
2014-Sep-28 16:33N 50°20' E 000°08'1312.5
2014-Sep-28 15:33N 50°15' W 000°10'1712.6
2014-Sep-28 14:10N 50°09' W 000°36'812.5
2014-Sep-28 13:32N 50°07' W 000°48'1313.5
2014-Sep-28 12:33N 50°03' W 001°08'1514.9
2014-Sep-28 11:33N 50°00' W 001°31'1616.2
2014-Sep-28 10:34N 49°57' W 001°55'1716.5
2014-Sep-28 09:32N 49°54' W 002°21'9515.2
2014-Sep-28 03:18N 49°11' W 004°31'1113.7
2014-Sep-28 02:30N 49°05' W 004°45'63612.9
2014-Sep-26 01:13N 39°09' W 009°53'3814.0
2014-Sep-25 22:32N 38°32' W 009°50'1313.7
2014-Sep-25 21:33N 38°18' W 009°50'1413.7
2014-Sep-25 20:34N 38°05' W 009°49'1413.7
2014-Sep-25 19:33N 37°51' W 009°48'1413.7
2014-Sep-25 18:33N 37°37' W 009°48'1413.9
2014-Sep-25 17:33N 37°23' W 009°46'1414.2
2014-Sep-25 16:33N 37°09' W 009°46'1414.0
2014-Sep-25 15:34N 36°55' W 009°45'  
Track history (hours):
 
Tides and Currents Weather Stations Pressure Air Temp Water Temp Dewpoint Dewpoint Depression Visibility Wind Speed Wind Dir Waves Ship Positions

St Charlotte

Last reported at 2014-Sep-30 17:33 UTC. Time now 2014-Sep-30 18:08 UTC.
Position N 53°38' W 000°11'.

Length 129 m; draft 6.4 m.

Type: Tanker. MMSI: 228331700.

Date/timePositionNaut miles runAvg speedWind from/ knotsBaromVisibWave heightAir tempDewpointWater temp
2014-Sep-30 17:33N 53°38' W 000°11'0 0.0
2014-Sep-30 16:32N 53°38' W 000°11'0 0.0
2014-Sep-30 15:33N 53°38' W 000°11'0 0.0
2014-Sep-30 14:33N 53°38' W 000°11'0 0.0
2014-Sep-30 13:33N 53°38' W 000°11'0 0.0
2014-Sep-30 12:33N 53°38' W 000°11'0 0.0
2014-Sep-30 11:33N 53°38' W 000°11'0 0.0
2014-Sep-30 10:33N 53°38' W 000°11'0 0.0
2014-Sep-30 09:33N 53°38' W 000°11'0 0.0
2014-Sep-30 08:33N 53°38' W 000°11'0 0.0
2014-Sep-30 07:33N 53°38' W 000°11'0 0.0
2014-Sep-30 06:33N 53°38' W 000°11'0 0.0
2014-Sep-30 05:33N 53°38' W 000°11'0 0.0
2014-Sep-30 04:33N 53°38' W 000°11'0 0.0
2014-Sep-30 03:33N 53°38' W 000°11'0 0.0
2014-Sep-30 02:34N 53°38' W 000°11'0 0.0
2014-Sep-30 01:33N 53°38' W 000°11'0 0.0
2014-Sep-30 00:33N 53°38' W 000°11'0 0.0
2014-Sep-29 23:33N 53°38' W 000°11'0 0.0
2014-Sep-29 22:33N 53°38' W 000°11'0 0.0
2014-Sep-29 21:33N 53°38' W 000°11'0 0.0
2014-Sep-29 20:33N 53°38' W 000°11'2 2.0
2014-Sep-29 19:33N 53°38' W 000°08'1313.4
2014-Sep-29 18:33N 53°33' E 000°14'10 9.6
2014-Sep-29 17:33N 53°32' E 000°30'10 9.7
2014-Sep-29 16:31N 53°31' E 000°47'2613.2
2014-Sep-29 14:33N 53°13' E 001°18'3 2.6
2014-Sep-29 13:33N 53°11' E 001°21'9 8.7
2014-Sep-29 12:33N 53°06' E 001°32'6 6.4
2014-Sep-29 11:33N 53°10' E 001°24'1111.5
2014-Sep-29 10:34N 53°02' E 001°38'1111.0
2014-Sep-29 09:33N 52°57' E 001°55'1111.1
2014-Sep-29 08:33N 52°50' E 002°09'1313.2
2014-Sep-29 07:32N 52°37' E 002°16'1414.5
2014-Sep-29 06:33N 52°23' E 002°20'3912.9
2014-Sep-29 03:34N 51°46' E 002°34'1414.4
2014-Sep-29 02:34N 51°34' E 002°19'1413.7
2014-Sep-29 01:33N 51°22' E 002°10'1313.0
2014-Sep-29 00:33N 51°12' E 001°57'1212.4
2014-Sep-28 23:33N 51°04' E 001°42'1111.1
2014-Sep-28 22:33N 50°56' E 001°30'1110.4
2014-Sep-28 21:32N 50°46' E 001°24'2110.8
2014-Sep-28 19:33N 50°30' E 001°01'1111.1
2014-Sep-28 18:33N 50°26' E 000°44'1311.9
2014-Sep-28 17:30N 50°23' E 000°25'1212.4
2014-Sep-28 16:33N 50°20' E 000°08'1312.5
2014-Sep-28 15:33N 50°15' W 000°10'1712.6
2014-Sep-28 14:10N 50°09' W 000°36'812.5
2014-Sep-28 13:32N 50°07' W 000°48'1313.5
2014-Sep-28 12:33N 50°03' W 001°08'1514.9
2014-Sep-28 11:33N 50°00' W 001°31'1616.2
2014-Sep-28 10:34N 49°57' W 001°55'1716.5
2014-Sep-28 09:32N 49°54' W 002°21'9515.2
2014-Sep-28 03:18N 49°11' W 004°31'1113.7
2014-Sep-28 02:30N 49°05' W 004°45'63612.9
2014-Sep-26 01:13N 39°09' W 009°53'3814.0
2014-Sep-25 22:32N 38°32' W 009°50'1313.7
2014-Sep-25 21:33N 38°18' W 009°50'1413.7
2014-Sep-25 20:34N 38°05' W 009°49'1413.7
2014-Sep-25 19:33N 37°51' W 009°48'1413.7
2014-Sep-25 18:33N 37°37' W 009°48'1413.9
2014-Sep-25 17:33N 37°23' W 009°46'1414.2
2014-Sep-25 16:33N 37°09' W 009°46'1414.0
2014-Sep-25 15:34N 36°55' W 009°45'  

Dump ship's entire track history